Aérodrome :
LOGIN :

S'inscrire | Disclaimer

   EN    FR    IT 

 










Légende :    VFR   VFR Marginal   IFR   IFR Intensif   IFR Très Intensif
Visi : 
Plafond : 
>= 8 km
>= 3000ft
5 à 8 km
1000 à 3000 ft
1500m à 5 km
500 à 1000 ft
800 à 1500m
200 à 500 ft
< 800m
< 200 ft
Symboles :   Orages  Brouillard  Fortes neiges  Fortes précipitations  Vent > 20 kt
SIGMETs :   Divers  Orages  Givrage  Turbulence  Onde Orograph.  Cendres Volcan.






- Altitude de l'aérodrome : 135 ft
- Code IATA : EDI


EGPH - Edinburgh

DERNIER METAR :
  • 241150Z 06010KT 5000 -RASN OVC006 02/02 Q0996

METARs EXPIRÉS :
  • 241120Z 06011KT 5000 -SN OVC006 02/02 Q0996
  • 241050Z 06011KT 5000 -SN BKN005 OVC013 02/02 Q0997
  • 241020Z 07012KT 4000 -SN OVC005 01/01 Q0998
  • 240950Z 07012KT 5000 -SN BKN006 02/02 Q0999
  • 240920Z 06012KT 6000 -SN BKN006 OVC015 02/02 Q1000

TAF TAF EGPH
Valide du 24 à 12h jusqu'au 25 à 12h UTC


241105Z 2412/2512 07012KT 7000 -RASN BKN010
BECMG 2412/2415 27011KT
TEMPO 2412/2418 4000 -SN BKN005
PROB30
TEMPO 2412/2417 1200 SN BKN002
BECMG 2418/2421 9999 NSW FEW012
PROB30
TEMPO 2500/2512 3000 SHRASN BKN006
ATIS : +44 131 339 2823



MET'MAP, la Météo Aéronautique d'un coup d'oeil ! - Copyright ORBIFLY Décembre 2007 - Disclaimer

ORBIFLY MET'MAP TEAM :

Programmation & Développement : Alexandra Zaïnal
Sur une idée originale de : Baudouin d'Aumeries
Assistance à la programmation : Marc-Olivier Méhu
Soutien technique & logistique : Manuel Goepfert

Contact : metmap@orbifly.com




SOURCES & CREDITS :

   NOAA